Time;durP1;ratioP1;P1;durP2;ratioP2;P2;SDS_P1;SDS_P2;PMS_P1;PMS_P2;Temp;Humidity;BMP_temperature;BMP_pressure;BME280_temperature;BME280_humidity;BME280_pressure;Samples;Min_cycle;Max_cycle;Signal;HPM_P1;HPM_P2
2022/06/02 00:01:35;;;;;;;1.87;1.43;;;;;;;17.31;66.13;98242.97;4112631;28;20665;-87
2022/06/02 00:03:42;;;;;;;3.07;1.60;;;;;;;17.32;64.67;98239.34;4129372;28;20731;-87
2022/06/02 00:05:57;;;;;;;2.10;1.60;;;;;;;17.36;65.13;98249.47;4122866;28;20651;-87
2022/06/02 00:08:05;;;;;;;3.13;1.80;;;;;;;17.33;66.51;98254.22;4111709;28;21070;-86
2022/06/02 00:10:13;;;;;;;4.27;1.63;;;;;;;17.32;66.41;98256.03;4114015;28;20718;-87
2022/06/02 00:12:24;;;;;;;2.43;1.87;;;;;;;17.34;64.82;98263.78;4109215;28;20664;-87
2022/06/02 00:14:33;;;;;;;2.93;2.07;;;;;;;17.34;64.87;98258.53;4130741;28;20673;-87
2022/06/02 00:16:48;;;;;;;2.60;1.87;;;;;;;17.36;64.81;98264.47;4113688;28;20670;-87
2022/06/02 00:18:54;;;;;;;3.63;1.83;;;;;;;17.37;65.91;98271.41;4113256;28;20722;-87
2022/06/02 00:21:02;;;;;;;2.23;1.70;;;;;;;17.37;66.98;98263.50;4113096;28;20721;-87
2022/06/02 00:23:18;;;;;;;2.90;1.90;;;;;;;17.34;68.11;98269.06;4129927;28;20644;-87
2022/06/02 00:25:27;;;;;;;2.17;1.60;;;;;;;17.32;67.15;98263.94;4130771;28;21329;-87
2022/06/02 00:27:37;;;;;;;5.03;2.13;;;;;;;17.32;67.39;98265.72;4130263;28;21093;-87
2022/06/02 00:29:46;;;;;;;2.43;1.80;;;;;;;17.31;68.24;98269.34;4127777;28;20723;-87
2022/06/02 00:32:01;;;;;;;5.53;1.87;;;;;;;17.29;66.75;98281.81;4106653;28;20656;-87
2022/06/02 00:34:15;;;;;;;2.57;1.90;;;;;;;17.27;66.53;98271.41;4126501;28;20633;-87
2022/06/02 00:36:22;;;;;;;2.97;1.63;;;;;;;17.28;66.69;98270.47;4110307;28;20644;-87
2022/06/02 00:38:28;;;;;;;2.40;1.70;;;;;;;17.31;68.11;98272.00;4109239;28;20649;-87
2022/06/02 00:40:33;;;;;;;3.30;1.80;;;;;;;17.32;66.54;98271.00;4111785;28;20639;-87
2022/06/02 00:42:42;;;;;;;3.70;1.90;;;;;;;17.32;66.68;98265.72;4110869;28;20680;-86
2022/06/02 00:44:52;;;;;;;3.07;2.20;;;;;;;17.33;67.36;98262.13;4112671;28;21245;-87
2022/06/02 00:46:59;;;;;;;6.37;2.10;;;;;;;17.30;66.63;98263.22;4130360;28;20640;-87
2022/06/02 00:49:10;;;;;;;2.77;1.90;;;;;;;17.28;66.76;98262.53;4107571;28;20700;-87
2022/06/02 00:51:15;;;;;;;2.50;2.00;;;;;;;17.23;64.36;98270.06;4129656;28;21259;-87
2022/06/02 00:53:33;;;;;;;2.43;1.83;;;;;;;17.17;62.43;98267.94;4113516;28;21058;-87
2022/06/02 00:58:20;;;;;;;2.40;1.77;;;;;;;17.13;63.53;98260.47;4098438;28;20646;-87
2022/06/02 01:00:29;;;;;;;3.43;1.80;;;;;;;17.15;64.38;98269.06;4096783;28;21064;-87
2022/06/02 01:02:46;;;;;;;2.27;1.87;;;;;;;17.14;63.43;98264.78;4132964;28;20639;-87
2022/06/02 01:04:49;;;;;;;4.40;1.83;;;;;;;17.11;64.65;98268.50;4113040;28;20716;-87
2022/06/02 01:07:00;;;;;;;3.17;1.90;;;;;;;17.10;62.63;98272.09;4111667;28;20682;-87
2022/06/02 01:09:20;;;;;;;2.80;2.10;;;;;;;17.09;64.37;98270.47;4119917;28;20658;-87
2022/06/02 01:11:28;;;;;;;2.40;1.77;;;;;;;17.07;65.66;98272.38;4128503;28;20654;-87
2022/06/02 01:13:48;;;;;;;2.53;2.00;;;;;;;17.07;65.75;98282.09;4110350;28;20762;-87
2022/06/02 01:16:00;;;;;;;3.23;1.97;;;;;;;17.04;65.27;98272.66;4109936;28;20630;-87
2022/06/02 01:18:14;;;;;;;2.50;1.70;;;;;;;17.04;66.23;98287.66;4110023;28;20675;-87
2022/06/02 01:20:37;;;;;;;3.30;2.00;;;;;;;17.02;65.66;98281.69;4099129;28;20635;-87
2022/06/02 01:23:16;;;;;;;2.13;1.93;;;;;;;16.98;65.04;98289.03;4090137;28;21094;-87
2022/06/02 01:25:37;;;;;;;2.80;2.10;;;;;;;16.94;65.93;98292.09;4111428;28;20663;-87
2022/06/02 01:28:02;;;;;;;4.03;2.00;;;;;;;16.93;66.68;98285.16;4126605;28;20633;-87
2022/06/02 01:30:23;;;;;;;2.87;2.10;;;;;;;16.89;67.39;98293.50;4119816;28;20648;-87
2022/06/02 01:32:31;;;;;;;3.43;1.80;;;;;;;16.86;66.67;98288.50;4094587;28;21072;-88
2022/06/02 01:34:45;;;;;;;3.97;2.10;;;;;;;16.85;66.25;98273.66;4088733;28;20639;-87
2022/06/02 01:36:54;;;;;;;2.73;2.10;;;;;;;16.84;65.88;98288.63;4110510;28;20988;-87
2022/06/02 01:39:05;;;;;;;3.63;2.10;;;;;;;16.83;65.90;98280.88;4093025;28;20653;-87
2022/06/02 01:41:20;;;;;;;3.13;2.10;;;;;;;16.78;67.81;98275.16;4107540;28;20651;-87
2022/06/02 01:43:28;;;;;;;3.60;2.40;;;;;;;16.78;67.74;98286.56;4096040;28;20708;-87
2022/06/02 01:45:43;;;;;;;4.97;2.37;;;;;;;16.76;66.71;98290.28;4111401;28;20721;-87
2022/06/02 01:47:53;;;;;;;4.03;2.30;;;;;;;16.81;65.21;98288.06;4110094;28;20613;-87
2022/06/02 01:50:06;;;;;;;6.60;2.50;;;;;;;16.76;62.60;98290.28;4109924;28;20687;-87
2022/06/02 01:52:34;;;;;;;3.30;2.33;;;;;;;16.73;64.55;98293.19;4124892;28;20684;-87
2022/06/02 01:54:43;;;;;;;3.63;2.33;;;;;;;16.72;64.77;98294.19;4128778;28;20731;-87
2022/06/02 01:56:56;;;;;;;5.93;2.63;;;;;;;16.73;64.66;98299.31;4127741;28;21270;-87
2022/06/02 01:59:12;;;;;;;3.03;2.33;;;;;;;16.69;63.86;98305.81;4104258;28;21225;-87
2022/06/02 02:01:20;;;;;;;4.00;2.70;;;;;;;16.70;65.90;98312.75;4087706;28;21077;-87
2022/06/02 02:03:29;;;;;;;3.73;2.20;;;;;;;16.65;64.68;98307.03;4111908;28;20634;-87
2022/06/02 02:05:51;;;;;;;4.20;2.47;;;;;;;16.63;64.32;98303.72;4105543;28;20661;-87
2022/06/02 02:08:09;;;;;;;3.37;2.17;;;;;;;16.64;65.74;98310.66;4091092;29;20699;-87
2022/06/02 02:10:20;;;;;;;5.23;2.70;;;;;;;16.64;65.80;98318.56;4123222;28;21237;-87
2022/06/02 02:12:33;;;;;;;3.07;2.10;;;;;;;16.63;64.91;98316.91;4117636;28;20641;-87
2022/06/02 02:15:03;;;;;;;2.60;2.40;;;;;;;16.57;68.28;98312.16;4111301;28;20637;-87
2022/06/02 02:17:21;;;;;;;5.90;2.60;;;;;;;16.51;68.40;98314.53;4104729;28;21081;-86
2022/06/02 02:19:31;;;;;;;3.07;2.60;;;;;;;16.50;68.28;98318.94;4110931;28;20747;-87
2022/06/02 02:21:42;;;;;;;3.50;2.30;;;;;;;16.50;66.94;98317.28;4111719;28;20641;-87
2022/06/02 02:23:57;;;;;;;6.97;2.37;;;;;;;16.50;66.50;98314.66;4119355;28;20699;-87
2022/06/02 02:26:05;;;;;;;3.37;2.43;;;;;;;16.48;65.61;98322.69;4106041;28;20685;-87
2022/06/02 02:28:15;;;;;;;2.80;2.40;;;;;;;16.45;65.06;98317.69;4109842;28;20717;-87
2022/06/02 02:30:18;;;;;;;3.53;2.33;;;;;;;16.46;67.84;98327.25;4127393;28;20664;-87
2022/06/02 02:32:31;;;;;;;2.70;2.23;;;;;;;16.49;68.72;98320.88;4126903;28;20645;-87
2022/06/02 02:34:43;;;;;;;2.97;2.10;;;;;;;16.46;67.80;98329.06;4111543;28;20667;-87
2022/06/02 02:36:56;;;;;;;3.90;2.37;;;;;;;16.48;67.95;98329.75;4094637;28;20633;-87
2022/06/02 02:39:14;;;;;;;2.43;2.13;;;;;;;16.47;68.66;98323.66;4119471;28;20638;-87
2022/06/02 02:41:25;;;;;;;3.00;2.33;;;;;;;16.48;64.03;98329.75;4088649;28;21234;-87
2022/06/02 02:43:36;;;;;;;4.37;2.70;;;;;;;16.44;65.84;98318.66;4095655;28;20638;-87
2022/06/02 02:45:46;;;;;;;3.00;2.40;;;;;;;16.50;67.09;98333.09;4125888;28;20663;-87
2022/06/02 02:47:53;;;;;;;3.30;2.20;;;;;;;16.49;66.69;98319.06;4108289;28;20653;-87
2022/06/02 02:50:06;;;;;;;2.50;2.30;;;;;;;16.52;64.79;98317.03;4110328;28;20641;-87
2022/06/02 02:52:16;;;;;;;3.03;2.50;;;;;;;16.42;64.21;98325.88;4094852;28;20678;-87
2022/06/02 02:54:24;;;;;;;3.40;2.77;;;;;;;16.33;65.36;98313.50;4105978;28;20644;-87
2022/06/02 02:56:31;;;;;;;3.30;2.30;;;;;;;16.32;66.46;98314.47;4110697;28;21228;-87
2022/06/02 02:58:40;;;;;;;5.13;2.40;;;;;;;16.31;68.27;98322.50;4126275;28;20634;-87
2022/06/02 03:00:47;;;;;;;3.00;2.57;;;;;;;16.28;68.00;98320.13;4105972;28;20641;-88
2022/06/02 03:02:57;;;;;;;6.20;2.70;;;;;;;16.28;68.58;98320.97;4107353;28;20641;-87
2022/06/02 03:05:08;;;;;;;3.30;2.73;;;;;;;16.24;68.44;98316.13;4109019;28;21239;-87
2022/06/02 03:07:11;;;;;;;3.87;2.50;;;;;;;16.19;70.11;98321.75;4121065;28;20711;-87
2022/06/02 03:09:19;;;;;;;3.03;2.23;;;;;;;16.13;68.21;98326.69;4126043;28;20736;-87
2022/06/02 03:11:35;;;;;;;5.10;2.40;;;;;;;16.03;68.05;98329.28;4093263;28;20647;-87
2022/06/02 03:13:45;;;;;;;5.43;2.60;;;;;;;15.99;68.92;98326.22;4105689;28;20712;-87
2022/06/02 03:15:53;;;;;;;2.93;2.60;;;;;;;15.98;68.14;98333.28;4105803;28;20637;-87
2022/06/02 03:18:09;;;;;;;3.07;2.43;;;;;;;15.98;68.87;98332.44;4111140;28;20730;-87
2022/06/02 03:20:19;;;;;;;3.07;2.70;;;;;;;15.94;66.39;98333.69;4107366;28;20995;-87
2022/06/02 03:22:34;;;;;;;3.60;2.67;;;;;;;15.91;67.82;98337.41;4124862;28;20674;-87
2022/06/02 03:24:46;;;;;;;3.50;2.90;;;;;;;15.92;69.16;98341.72;4126482;28;20683;-87
2022/06/02 03:27:02;;;;;;;2.70;2.40;;;;;;;15.92;67.21;98336.47;4107841;28;20748;-87
2022/06/02 03:29:12;;;;;;;3.70;2.80;;;;;;;15.93;67.67;98337.28;4107226;28;20646;-87
2022/06/02 03:31:21;;;;;;;3.23;2.43;;;;;;;15.88;68.77;98340.31;4126152;28;21222;-87
2022/06/02 03:33:39;;;;;;;2.73;2.50;;;;;;;15.86;69.49;98342.25;4096920;28;20654;-87
2022/06/02 03:35:52;;;;;;;3.33;2.70;;;;;;;15.83;68.24;98339.03;4106329;28;20731;-87
2022/06/02 03:38:03;;;;;;;3.13;2.80;;;;;;;15.81;67.05;98336.53;4106373;28;20645;-87
2022/06/02 03:40:23;;;;;;;5.33;2.60;;;;;;;15.85;68.96;98345.81;4106061;28;20630;-87
2022/06/02 03:42:34;;;;;;;3.83;3.10;;;;;;;15.84;69.55;98346.78;4110065;28;20638;-87
2022/06/02 03:44:47;;;;;;;2.73;2.50;;;;;;;15.85;69.79;98340.56;4108394;28;20643;-87
2022/06/02 03:47:05;;;;;;;3.00;2.70;;;;;;;15.83;67.67;98347.75;4119951;28;20664;-87
2022/06/02 03:49:21;;;;;;;3.70;3.30;;;;;;;15.79;69.29;98342.91;4094087;28;20641;-87
2022/06/02 03:51:40;;;;;;;4.50;2.90;;;;;;;15.78;70.92;98347.31;4121389;28;20641;-87
2022/06/02 03:54:04;;;;;;;3.53;2.40;;;;;;;15.74;70.14;98347.69;4093000;28;20641;-87
2022/06/02 03:56:18;;;;;;;3.30;2.60;;;;;;;15.69;70.68;98350.72;4125442;28;20639;-87
2022/06/02 03:58:35;;;;;;;3.97;3.13;;;;;;;15.69;68.42;98352.50;4089947;28;20637;-87
2022/06/02 04:00:47;;;;;;;3.30;3.00;;;;;;;15.73;68.45;98348.69;4106805;28;22475;-87
2022/06/02 04:02:53;;;;;;;4.63;3.03;;;;;;;15.77;70.85;98360.59;4101415;28;20636;-87
2022/06/02 04:05:08;;;;;;;3.57;2.67;;;;;;;15.82;69.85;98356.59;4125180;28;20655;-89
2022/06/02 04:07:22;;;;;;;3.47;3.10;;;;;;;15.89;70.51;98359.53;4090561;29;20688;-87
2022/06/02 04:09:34;;;;;;;3.07;2.50;;;;;;;15.91;67.95;98361.09;4108894;28;21110;-87
2022/06/02 04:14:57;;;;;;;3.50;2.83;;;;;;;15.94;68.09;98360.84;4066316;29;21085;-87
2022/06/02 04:17:02;;;;;;;4.40;2.90;;;;;;;15.98;69.63;98366.66;4083955;28;20633;-87
2022/06/02 04:21:48;;;;;;;4.07;2.77;;;;;;;16.02;69.34;98372.34;4104569;28;20680;-87
2022/06/02 04:24:15;;;;;;;5.23;3.20;;;;;;;15.95;69.15;98361.66;4106566;28;20675;-87
2022/06/02 04:26:33;;;;;;;4.00;3.47;;;;;;;15.92;70.92;98372.44;4105777;28;20807;-87
2022/06/02 04:28:45;;;;;;;3.40;3.10;;;;;;;15.94;70.90;98376.63;4122493;28;20739;-88
2022/06/02 04:30:55;;;;;;;3.80;3.40;;;;;;;15.93;70.06;98372.31;4120568;28;20647;-87
2022/06/02 04:33:05;;;;;;;4.10;3.20;;;;;;;15.94;70.40;98375.78;4108469;28;20727;-88
2022/06/02 04:35:18;;;;;;;4.40;3.40;;;;;;;15.93;70.90;98382.00;4093254;28;20638;-87
2022/06/02 04:37:31;;;;;;;5.10;3.47;;;;;;;15.87;71.54;98375.47;4106608;28;20635;-87
2022/06/02 04:39:42;;;;;;;4.33;3.03;;;;;;;15.87;73.30;98378.09;4089908;28;20737;-87
2022/06/02 04:41:49;;;;;;;3.10;2.80;;;;;;;15.87;73.19;98380.72;4104299;28;20640;-87
2022/06/02 04:43:58;;;;;;;19.13;3.47;;;;;;;15.84;70.49;98380.16;4088355;28;20747;-87
2022/06/02 04:46:11;;;;;;;5.30;3.30;;;;;;;15.83;72.65;98378.47;4117691;28;20632;-88
2022/06/02 04:48:45;;;;;;;3.77;3.20;;;;;;;15.84;72.74;98378.34;4071401;28;20735;-88
2022/06/02 04:50:56;;;;;;;6.43;3.23;;;;;;;15.87;73.06;98379.91;4107973;28;21007;-87
2022/06/02 04:53:18;;;;;;;3.60;3.00;;;;;;;15.90;74.14;98383.09;4104922;28;20634;-87
2022/06/02 04:55:29;;;;;;;6.63;3.60;;;;;;;15.89;73.50;98386.72;4121681;28;20655;-87
2022/06/02 04:57:38;;;;;;;5.60;3.90;;;;;;;15.91;75.04;98382.13;4122099;28;20978;-87
2022/06/02 04:59:50;;;;;;;4.80;3.77;;;;;;;15.92;73.16;98382.97;4113538;28;20641;-88
2022/06/02 05:02:01;;;;;;;4.43;3.73;;;;;;;15.92;75.13;98382.97;4111449;28;20716;-88
2022/06/02 05:04:11;;;;;;;7.10;4.10;;;;;;;15.92;74.93;98381.19;4122818;28;20643;-87
2022/06/02 05:06:19;;;;;;;5.00;3.70;;;;;;;15.95;74.20;98386.19;4107713;28;20739;-87
2022/06/02 05:08:43;;;;;;;6.60;4.20;;;;;;;16.03;74.84;98389.81;4110276;28;21222;-86
2022/06/02 05:10:54;;;;;;;5.53;4.27;;;;;;;16.11;74.98;98389.97;4091084;28;20635;-88
2022/06/02 05:13:05;;;;;;;11.23;4.23;;;;;;;16.16;74.85;98394.84;4111503;28;20656;-88
2022/06/02 05:15:15;;;;;;;5.13;4.23;;;;;;;16.17;74.62;98392.09;4106199;28;20700;-87
2022/06/02 05:17:36;;;;;;;4.70;4.20;;;;;;;16.21;74.17;98395.31;4122817;28;20641;-87
2022/06/02 05:20:13;;;;;;;3.83;3.43;;;;;;;16.31;72.90;98393.56;4122645;28;20738;-89
2022/06/02 05:22:41;;;;;;;7.20;3.63;;;;;;;16.41;71.12;98397.09;4110037;28;21042;-91
2022/06/02 05:25:12;;;;;;;6.20;4.17;;;;;;;16.50;71.13;98399.75;4097022;28;20645;-91
2022/06/02 05:27:39;;;;;;;4.80;3.40;;;;;;;16.53;69.21;98412.66;4112226;28;21111;-91
2022/06/02 05:30:01;;;;;;;3.40;3.10;;;;;;;16.60;68.76;98406.72;4128485;28;20659;-90
2022/06/02 05:32:20;;;;;;;4.93;3.43;;;;;;;16.74;69.89;98401.06;4128572;28;20664;-91
2022/06/02 05:34:49;;;;;;;4.63;3.50;;;;;;;16.94;69.72;98421.22;4121693;28;21343;-89
2022/06/02 05:37:08;;;;;;;4.60;4.20;;;;;;;17.14;70.04;98422.94;4108509;28;20672;-89
2022/06/02 05:39:30;;;;;;;5.00;3.80;;;;;;;17.34;68.40;98424.66;4128128;28;20631;-89
2022/06/02 05:41:56;;;;;;;4.57;3.50;;;;;;;17.61;64.47;98430.91;4096195;28;20762;-85
2022/06/02 05:44:10;;;;;;;5.57;3.70;;;;;;;17.93;63.87;98440.16;4115016;28;20701;-87
2022/06/02 05:46:33;;;;;;;4.20;3.60;;;;;;;18.29;66.29;98440.25;4101127;28;20673;-86
2022/06/02 05:48:48;;;;;;;6.80;3.20;;;;;;;18.69;66.10;98440.81;4088289;28;20664;-87
2022/06/02 05:51:02;;;;;;;7.00;3.70;;;;;;;19.04;65.11;98439.13;4124368;28;20643;-94
2022/06/02 05:53:14;;;;;;;4.83;3.87;;;;;;;19.26;63.87;98449.25;4123394;28;21190;-87
2022/06/02 05:55:33;;;;;;;5.23;3.80;;;;;;;19.49;64.24;98444.22;4112601;28;20663;-88
2022/06/02 05:57:38;;;;;;;4.27;3.70;;;;;;;19.66;62.33;98443.38;4118976;28;20771;-88
2022/06/02 06:00:08;;;;;;;5.63;3.90;;;;;;;19.90;62.21;98446.28;4117754;28;21181;-87
2022/06/02 06:02:30;;;;;;;4.80;3.80;;;;;;;20.09;63.65;98446.91;4104644;28;20682;-87
2022/06/02 06:04:53;;;;;;;4.97;4.27;;;;;;;20.39;63.63;98454.41;4111005;28;20633;-87
2022/06/02 06:06:59;;;;;;;6.17;3.40;;;;;;;20.60;61.33;98462.84;4121109;28;20772;-87
2022/06/02 06:09:05;;;;;;;9.63;3.70;;;;;;;20.87;61.49;98460.84;4125113;28;20681;-87
2022/06/02 06:11:18;;;;;;;4.20;3.20;;;;;;;21.11;59.02;98452.97;4089953;28;20637;-87
2022/06/02 06:13:53;;;;;;;5.30;3.13;;;;;;;21.22;58.10;98448.19;4092510;28;20632;-86
2022/06/02 06:16:04;;;;;;;5.77;3.40;;;;;;;21.29;58.04;98452.69;4091851;28;20724;-87
2022/06/02 06:18:16;;;;;;;4.77;3.20;;;;;;;21.48;59.90;98459.56;4108958;28;20632;-87
2022/06/02 06:20:36;;;;;;;3.33;3.03;;;;;;;21.80;60.88;98458.63;4121577;28;20657;-87
2022/06/02 06:23:11;;;;;;;3.67;3.30;;;;;;;22.14;58.70;98458.47;4124062;28;20714;-87
2022/06/02 06:25:24;;;;;;;3.87;3.20;;;;;;;22.39;57.13;98463.63;4110781;28;20641;-87
2022/06/02 06:27:33;;;;;;;3.83;3.00;;;;;;;22.63;55.37;98467.06;4128680;28;20656;-88
2022/06/02 06:29:43;;;;;;;4.00;3.20;;;;;;;22.83;53.92;98478.97;4109240;28;20672;-88
2022/06/02 06:32:01;;;;;;;5.20;4.20;;;;;;;23.00;52.78;98476.09;4105621;28;20634;-88
2022/06/02 06:34:11;;;;;;;3.90;2.87;;;;;;;23.22;51.83;98468.19;4110799;28;20667;-87
2022/06/02 06:36:31;;;;;;;3.63;3.10;;;;;;;23.29;51.87;98479.00;4106970;28;20667;-87
2022/06/02 06:38:51;;;;;;;4.80;2.70;;;;;;;23.53;52.50;98473.50;4120772;28;20653;-87
2022/06/02 06:41:28;;;;;;;3.37;2.73;;;;;;;23.74;52.18;98458.59;4111086;28;20657;-88
2022/06/02 06:43:46;;;;;;;4.93;3.00;;;;;;;23.88;49.91;98471.97;4105470;28;20629;-88
2022/06/02 06:45:54;;;;;;;4.97;3.00;;;;;;;23.84;50.83;98473.31;4109295;28;20678;-88
2022/06/02 06:48:02;;;;;;;3.00;2.47;;;;;;;24.07;51.78;98470.66;4105691;28;21250;-87
2022/06/02 06:50:12;;;;;;;3.67;2.43;;;;;;;24.21;50.22;98463.53;4108228;28;21012;-89
2022/06/02 06:52:26;;;;;;;3.60;3.30;;;;;;;24.38;51.22;98475.75;4111320;28;20633;-89
2022/06/02 06:54:39;;;;;;;3.17;2.67;;;;;;;24.50;51.97;98479.63;4122473;28;20638;-96
2022/06/02 06:57:00;;;;;;;3.17;2.57;;;;;;;24.54;49.83;98475.59;4106773;28;21780;-87
2022/06/02 06:59:17;;;;;;;5.10;2.87;;;;;;;24.61;49.96;98476.50;4123012;28;20739;-87
2022/06/02 07:01:27;;;;;;;3.53;2.80;;;;;;;24.66;50.18;98474.97;4101228;28;20633;-88
2022/06/02 07:03:40;;;;;;;4.27;2.70;;;;;;;24.69;49.15;98479.13;4101297;28;20631;-88
2022/06/02 07:05:48;;;;;;;2.60;2.40;;;;;;;24.78;48.21;98467.34;4103855;28;20650;-89
2022/06/02 07:07:58;;;;;;;3.10;2.80;;;;;;;24.70;47.64;98470.94;4121301;28;20771;-88
2022/06/02 07:10:08;;;;;;;4.20;2.73;;;;;;;24.79;49.82;98477.00;4120814;28;20630;-88
2022/06/02 07:14:48;;;;;;;2.43;2.13;;;;;;;24.81;48.15;98475.00;4108700;28;21230;-87
2022/06/02 07:16:55;;;;;;;4.20;3.13;;;;;;;24.92;51.18;98470.00;4106760;28;20722;-87
2022/06/02 07:19:05;;;;;;;2.83;2.60;;;;;;;25.13;50.64;98476.28;4109977;28;20681;-88
2022/06/02 07:21:19;;;;;;;2.77;2.53;;;;;;;25.32;49.44;98478.38;4120453;28;20643;-87
2022/06/02 07:23:52;;;;;;;2.80;2.30;;;;;;;25.25;47.33;98477.47;4111546;28;21165;-87
2022/06/02 07:26:03;;;;;;;3.60;2.70;;;;;;;25.07;48.67;98481.53;4105975;28;20712;-87
2022/06/02 07:28:10;;;;;;;4.33;2.90;;;;;;;25.19;48.48;98467.53;4109835;28;20670;-87
2022/06/02 07:30:24;;;;;;;3.50;3.03;;;;;;;25.31;48.71;98468.69;4125444;28;20636;-88
2022/06/02 07:33:03;;;;;;;3.47;2.60;;;;;;;25.07;48.73;98460.19;4126167;28;21074;-87
2022/06/02 07:35:36;;;;;;;3.33;2.40;;;;;;;25.25;47.85;98464.09;4124742;28;20738;-87
2022/06/02 07:37:44;;;;;;;4.03;2.40;;;;;;;25.20;46.75;98471.84;4122757;28;20641;-87
2022/06/02 07:40:08;;;;;;;4.10;2.73;;;;;;;25.12;48.22;98475.66;4111903;28;20730;-87
2022/06/02 07:42:23;;;;;;;3.10;2.80;;;;;;;25.16;47.43;98472.41;4093468;29;21219;-87
2022/06/02 07:44:47;;;;;;;2.70;2.50;;;;;;;25.33;49.90;98468.50;4090568;28;20648;-88
2022/06/02 07:47:03;;;;;;;3.87;3.17;;;;;;;25.29;47.92;98462.72;4072480;29;20654;-87
2022/06/02 07:49:23;;;;;;;4.43;2.67;;;;;;;25.58;47.16;98462.66;4091704;29;20762;-87
2022/06/02 07:51:33;;;;;;;4.10;2.53;;;;;;;25.54;45.68;98464.03;4092698;28;21214;-88
2022/06/02 07:53:53;;;;;;;4.30;2.40;;;;;;;25.63;47.18;98455.75;4107102;28;20617;-87
2022/06/02 07:56:02;;;;;;;4.10;2.80;;;;;;;25.86;47.28;98466.25;4127105;28;20653;-87
2022/06/02 07:58:15;;;;;;;3.40;2.67;;;;;;;25.68;47.11;98458.69;4106575;28;21152;-87
2022/06/02 08:00:20;;;;;;;3.33;2.57;;;;;;;25.63;46.61;98469.09;4106116;28;20631;-88
2022/06/02 08:02:52;;;;;;;3.63;2.33;;;;;;;25.74;45.76;98471.31;4103208;28;20611;-88
2022/06/02 08:05:01;;;;;;;3.20;2.23;;;;;;;25.91;46.64;98474.56;4104516;28;20830;-87
2022/06/02 08:07:16;;;;;;;3.83;2.20;;;;;;;25.88;46.37;98472.28;4124317;28;20689;-87
2022/06/02 08:09:45;;;;;;;4.93;2.43;;;;;;;25.76;45.50;98474.59;4120106;28;20765;-88
2022/06/02 08:11:55;;;;;;;4.80;2.40;;;;;;;25.66;45.94;98459.88;4105848;28;20634;-88
2022/06/02 08:14:10;;;;;;;3.57;2.20;;;;;;;25.85;46.79;98470.78;4114236;28;20627;-88
2022/06/02 08:16:16;;;;;;;2.60;2.10;;;;;;;26.05;46.97;98468.31;4123874;28;20642;-88
2022/06/02 08:18:30;;;;;;;3.47;2.10;;;;;;;26.13;45.54;98474.34;4124285;28;20882;-87
2022/06/02 08:20:43;;;;;;;2.67;2.00;;;;;;;25.91;45.68;98475.38;4107863;28;20674;-87
2022/06/02 08:22:52;;;;;;;3.10;2.00;;;;;;;25.99;45.97;98471.75;4108319;28;20747;-88
2022/06/02 08:25:04;;;;;;;2.33;1.90;;;;;;;26.03;46.28;98473.84;4112298;28;21229;-88
2022/06/02 08:27:21;;;;;;;2.50;1.80;;;;;;;25.89;44.91;98469.41;4095032;28;20671;-87
2022/06/02 08:29:36;;;;;;;3.33;1.93;;;;;;;25.56;45.36;98474.53;4106135;28;20655;-88
2022/06/02 08:32:01;;;;;;;3.63;2.30;;;;;;;25.73;47.05;98472.31;4093811;29;20672;-88
2022/06/02 08:34:09;;;;;;;2.97;1.90;;;;;;;25.87;45.02;98473.28;4110344;28;20644;-89
2022/06/02 08:36:15;;;;;;;3.17;2.00;;;;;;;25.84;44.40;98476.34;4110351;28;20641;-88
2022/06/02 08:38:37;;;;;;;3.20;2.00;;;;;;;25.95;46.35;98470.47;4091420;28;20629;-88
2022/06/02 08:41:30;;;;;;;3.30;1.80;;;;;;;26.15;47.01;98473.16;4126786;28;21357;-89
2022/06/02 08:43:49;;;;;;;3.07;2.17;;;;;;;26.31;46.83;98472.91;4093153;28;20729;-88
2022/06/02 08:46:35;;;;;;;4.93;2.20;;;;;;;26.41;47.13;98468.03;4109956;28;20628;-88
2022/06/02 08:49:16;;;;;;;3.43;2.23;;;;;;;26.24;45.07;98471.16;4124146;28;20657;-88
2022/06/02 08:52:00;;;;;;;4.00;2.10;;;;;;;26.10;47.25;98472.09;4121309;28;21075;-89
2022/06/02 08:54:36;;;;;;;3.70;1.93;;;;;;;26.11;46.36;98473.72;4105767;28;21299;-88
2022/06/02 08:57:16;;;;;;;2.73;1.93;;;;;;;26.33;46.64;98470.06;4096304;28;20647;-89
2022/06/02 08:59:57;;;;;;;2.47;1.70;;;;;;;26.35;45.73;98468.81;4107990;28;20644;-89
2022/06/02 09:02:20;;;;;;;3.93;2.20;;;;;;;26.20;45.57;98459.19;4126498;28;20725;-88
2022/06/02 09:04:48;;;;;;;2.50;2.00;;;;;;;26.27;47.59;98471.63;4125874;28;21182;-87
2022/06/02 09:07:08;;;;;;;2.17;1.80;;;;;;;26.34;47.07;98472.53;4089953;28;20672;-88
2022/06/02 09:10:08;;;;;;;4.87;2.40;;;;;;;26.46;46.45;98468.31;4110608;28;20656;-89
2022/06/02 09:13:01;;;;;;;3.80;2.00;;;;;;;26.47;46.68;98477.16;4104212;28;20659;-90
2022/06/02 09:15:27;;;;;;;2.87;2.30;;;;;;;26.45;48.18;98480.03;4111449;28;20652;-90
2022/06/02 09:17:45;;;;;;;3.23;1.80;;;;;;;26.33;47.81;98480.75;4130222;28;20699;-90
2022/06/02 09:20:12;;;;;;;2.50;1.93;;;;;;;26.37;47.24;98472.16;4114099;28;20679;-92
2022/06/02 09:22:33;;;;;;;2.60;1.93;;;;;;;26.32;45.78;98466.53;4114960;28;20612;-90
2022/06/02 09:24:43;;;;;;;2.30;1.90;;;;;;;26.28;46.34;98470.63;4132302;28;20759;-91
2022/06/02 09:26:59;;;;;;;2.63;2.03;;;;;;;26.15;45.60;98461.63;4116667;28;20730;-90
2022/06/02 09:29:23;;;;;;;2.50;1.73;;;;;;;26.09;47.03;98463.22;4093922;28;21211;-89
2022/06/02 09:31:42;;;;;;;2.40;2.20;;;;;;;25.97;45.10;98465.78;4138540;28;20674;-89
2022/06/02 09:34:10;;;;;;;2.57;1.93;;;;;;;25.81;46.10;98458.00;4124004;28;20628;-89
2022/06/02 09:36:49;;;;;;;1.97;1.77;;;;;;;25.84;50.90;98461.09;4112485;28;20641;-88
2022/06/02 09:39:03;;;;;;;3.50;2.20;;;;;;;25.88;47.16;98462.38;4091167;28;20672;-88
2022/06/02 09:41:46;;;;;;;2.53;1.87;;;;;;;25.74;47.49;98459.75;4111628;28;21515;-89
2022/06/02 09:44:05;;;;;;;2.83;2.40;;;;;;;25.91;49.32;98469.22;4106113;28;20641;-89
2022/06/02 09:46:26;;;;;;;2.73;2.13;;;;;;;26.06;47.74;98472.66;4105519;28;20633;-90
2022/06/02 09:48:58;;;;;;;3.83;2.30;;;;;;;26.15;48.13;98467.78;4120633;28;20642;-89
2022/06/02 09:51:15;;;;;;;2.70;2.00;;;;;;;26.15;49.42;98465.13;4107901;28;20635;-89
2022/06/02 09:53:45;;;;;;;3.17;2.20;;;;;;;26.18;49.31;98464.72;4103319;28;20723;-89
2022/06/02 09:56:03;;;;;;;4.30;1.97;;;;;;;26.29;49.11;98461.56;4110536;28;20663;-89
2022/06/02 09:58:18;;;;;;;3.30;2.10;;;;;;;26.44;51.56;98467.66;4112050;28;20636;-90
2022/06/02 10:00:33;;;;;;;4.60;2.40;;;;;;;26.54;48.74;98470.84;4132240;28;20639;-90
2022/06/02 10:02:41;;;;;;;3.10;1.90;;;;;;;26.42;46.66;98460.88;4128929;28;20761;-89
2022/06/02 10:05:00;;;;;;;2.43;2.00;;;;;;;26.26;46.52;98464.59;4107512;28;20201;-88
2022/06/02 10:07:41;;;;;;;2.10;1.83;;;;;;;26.20;47.11;98465.34;4108087;28;21318;-88
2022/06/02 10:10:30;;;;;;;3.47;2.10;;;;;;;26.11;47.91;98461.16;4123409;28;20769;-90
2022/06/02 10:12:57;;;;;;;2.50;2.00;;;;;;;26.25;49.68;98460.28;4125204;28;21183;-90
2022/06/02 10:15:16;;;;;;;2.13;1.90;;;;;;;26.25;46.88;98468.31;4126332;28;20686;-88
2022/06/02 10:17:52;;;;;;;4.30;1.97;;;;;;;26.07;47.48;98455.56;4106061;28;20755;-88
2022/06/02 10:20:10;;;;;;;3.20;2.30;;;;;;;26.14;47.47;98466.13;4110849;28;20640;-88
2022/06/02 10:22:19;;;;;;;2.33;2.13;;;;;;;26.01;46.11;98448.31;4106902;28;20656;-88
2022/06/02 10:24:54;;;;;;;2.90;2.17;;;;;;;25.91;46.74;98448.63;4110550;28;21092;-88
2022/06/02 10:27:09;;;;;;;4.63;2.50;;;;;;;25.90;47.07;98448.81;4115890;28;20643;-88
2022/06/02 10:29:46;;;;;;;2.57;2.10;;;;;;;25.81;47.26;98450.78;4115308;28;20703;-88
2022/06/02 10:32:26;;;;;;;2.43;1.90;;;;;;;25.88;48.39;98442.84;4131508;28;20642;-88
2022/06/02 10:34:55;;;;;;;2.50;2.30;;;;;;;25.98;50.35;98443.34;4110109;28;20683;-88
2022/06/02 10:37:04;;;;;;;2.70;2.40;;;;;;;26.14;52.44;98442.03;4121309;28;20677;-88
2022/06/02 10:39:25;;;;;;;3.17;1.97;;;;;;;26.24;48.82;98439.88;4127898;28;21317;-89
2022/06/02 10:41:53;;;;;;;2.50;2.20;;;;;;;26.32;49.35;98433.59;4117271;28;20732;-89
2022/06/02 10:44:08;;;;;;;3.87;2.00;;;;;;;26.29;46.42;98432.13;4107490;28;21277;-91
2022/06/02 10:46:48;;;;;;;4.20;2.67;;;;;;;26.08;47.44;98434.81;4122004;28;20640;-89
2022/06/02 10:49:02;;;;;;;2.77;2.23;;;;;;;26.00;47.61;98430.63;4107335;28;20639;-90
2022/06/02 10:51:21;;;;;;;3.03;2.00;;;;;;;26.07;47.82;98426.16;4110759;28;20671;-89
2022/06/02 10:53:56;;;;;;;5.00;2.17;;;;;;;26.16;47.89;98423.97;4112534;28;21222;-90
2022/06/02 10:56:21;;;;;;;3.97;2.50;;;;;;;26.06;47.72;98427.19;4098211;29;20731;-90